sensor_id;sensor_type;location;lat;lon;timestamp;P1;durP1;ratioP1;P2;durP2;ratioP2
5351;SDS011;2698;51.454;6.736;2022-11-30T00:00:48;108.97;;;38.80;;
5351;SDS011;2698;51.454;6.736;2022-11-30T00:03:15;97.00;;;38.77;;
5351;SDS011;2698;51.454;6.736;2022-11-30T00:05:41;90.93;;;36.20;;
5351;SDS011;2698;51.454;6.736;2022-11-30T00:08:08;117.37;;;39.43;;
5351;SDS011;2698;51.454;6.736;2022-11-30T00:10:36;99.23;;;39.20;;
5351;SDS011;2698;51.454;6.736;2022-11-30T00:13:03;137.63;;;39.97;;
5351;SDS011;2698;51.454;6.736;2022-11-30T00:15:31;133.03;;;44.40;;
5351;SDS011;2698;51.454;6.736;2022-11-30T00:17:58;142.73;;;40.23;;
5351;SDS011;2698;51.454;6.736;2022-11-30T00:20:25;124.37;;;44.37;;
5351;SDS011;2698;51.454;6.736;2022-11-30T00:22:53;128.40;;;43.60;;
5351;SDS011;2698;51.454;6.736;2022-11-30T00:25:21;128.13;;;41.50;;
5351;SDS011;2698;51.454;6.736;2022-11-30T00:27:48;140.23;;;45.47;;
5351;SDS011;2698;51.454;6.736;2022-11-30T00:30:14;152.00;;;44.50;;
5351;SDS011;2698;51.454;6.736;2022-11-30T00:32:43;146.47;;;45.27;;
5351;SDS011;2698;51.454;6.736;2022-11-30T00:35:09;138.87;;;45.37;;
5351;SDS011;2698;51.454;6.736;2022-11-30T00:37:36;137.50;;;44.40;;
5351;SDS011;2698;51.454;6.736;2022-11-30T00:40:04;124.77;;;44.80;;
5351;SDS011;2698;51.454;6.736;2022-11-30T00:42:32;153.53;;;44.57;;
5351;SDS011;2698;51.454;6.736;2022-11-30T00:44:58;143.43;;;45.90;;
5351;SDS011;2698;51.454;6.736;2022-11-30T00:47:25;122.97;;;43.33;;
5351;SDS011;2698;51.454;6.736;2022-11-30T00:49:53;141.93;;;44.43;;
5351;SDS011;2698;51.454;6.736;2022-11-30T00:52:20;132.23;;;45.40;;
5351;SDS011;2698;51.454;6.736;2022-11-30T00:54:47;123.37;;;44.57;;
5351;SDS011;2698;51.454;6.736;2022-11-30T00:57:13;136.97;;;43.37;;
5351;SDS011;2698;51.454;6.736;2022-11-30T00:59:40;149.10;;;47.40;;
5351;SDS011;2698;51.454;6.736;2022-11-30T01:02:07;153.00;;;46.13;;
5351;SDS011;2698;51.454;6.736;2022-11-30T01:04:34;156.67;;;47.77;;
5351;SDS011;2698;51.454;6.736;2022-11-30T01:07:02;120.50;;;43.80;;
5351;SDS011;2698;51.454;6.736;2022-11-30T01:09:29;111.60;;;46.07;;
5351;SDS011;2698;51.454;6.736;2022-11-30T01:11:55;122.43;;;44.27;;
5351;SDS011;2698;51.454;6.736;2022-11-30T01:14:22;113.13;;;42.53;;
5351;SDS011;2698;51.454;6.736;2022-11-30T01:16:49;93.53;;;39.17;;
5351;SDS011;2698;51.454;6.736;2022-11-30T01:19:16;71.20;;;36.57;;
5351;SDS011;2698;51.454;6.736;2022-11-30T01:21:42;82.37;;;35.20;;
5351;SDS011;2698;51.454;6.736;2022-11-30T01:24:11;65.97;;;32.60;;
5351;SDS011;2698;51.454;6.736;2022-11-30T01:26:37;64.00;;;33.27;;
5351;SDS011;2698;51.454;6.736;2022-11-30T01:29:04;65.80;;;33.27;;
5351;SDS011;2698;51.454;6.736;2022-11-30T01:31:31;66.93;;;33.83;;
5351;SDS011;2698;51.454;6.736;2022-11-30T01:33:58;47.77;;;29.47;;
5351;SDS011;2698;51.454;6.736;2022-11-30T01:36:25;49.83;;;29.77;;
5351;SDS011;2698;51.454;6.736;2022-11-30T01:38:53;52.83;;;30.60;;
5351;SDS011;2698;51.454;6.736;2022-11-30T01:41:23;54.50;;;32.50;;
5351;SDS011;2698;51.454;6.736;2022-11-30T01:43:52;53.83;;;29.73;;
5351;SDS011;2698;51.454;6.736;2022-11-30T01:46:21;57.17;;;32.57;;
5351;SDS011;2698;51.454;6.736;2022-11-30T01:48:54;57.00;;;32.67;;
5351;SDS011;2698;51.454;6.736;2022-11-30T01:51:31;52.00;;;31.17;;
5351;SDS011;2698;51.454;6.736;2022-11-30T01:54:02;56.53;;;32.70;;
5351;SDS011;2698;51.454;6.736;2022-11-30T01:56:32;55.37;;;31.60;;
5351;SDS011;2698;51.454;6.736;2022-11-30T01:58:59;54.40;;;32.67;;
5351;SDS011;2698;51.454;6.736;2022-11-30T02:01:26;71.20;;;35.20;;
5351;SDS011;2698;51.454;6.736;2022-11-30T02:03:54;61.63;;;36.13;;
5351;SDS011;2698;51.454;6.736;2022-11-30T02:06:24;61.43;;;35.03;;
5351;SDS011;2698;51.454;6.736;2022-11-30T02:08:51;59.70;;;33.73;;
5351;SDS011;2698;51.454;6.736;2022-11-30T02:11:20;70.13;;;39.10;;
5351;SDS011;2698;51.454;6.736;2022-11-30T02:13:54;69.87;;;36.47;;
5351;SDS011;2698;51.454;6.736;2022-11-30T02:16:29;64.17;;;36.90;;
5351;SDS011;2698;51.454;6.736;2022-11-30T02:19:10;89.97;;;42.67;;
5351;SDS011;2698;51.454;6.736;2022-11-30T02:21:56;85.70;;;45.97;;
5351;SDS011;2698;51.454;6.736;2022-11-30T02:24:41;103.87;;;52.47;;
5351;SDS011;2698;51.454;6.736;2022-11-30T02:27:23;101.13;;;48.70;;
5351;SDS011;2698;51.454;6.736;2022-11-30T02:30:04;87.33;;;45.10;;
5351;SDS011;2698;51.454;6.736;2022-11-30T02:32:35;78.87;;;43.57;;
5351;SDS011;2698;51.454;6.736;2022-11-30T02:35:07;86.37;;;40.97;;
5351;SDS011;2698;51.454;6.736;2022-11-30T02:37:36;72.07;;;38.67;;
5351;SDS011;2698;51.454;6.736;2022-11-30T02:40:06;72.77;;;37.90;;
5351;SDS011;2698;51.454;6.736;2022-11-30T02:42:34;76.33;;;40.07;;
5351;SDS011;2698;51.454;6.736;2022-11-30T02:45:01;75.00;;;39.40;;
5351;SDS011;2698;51.454;6.736;2022-11-30T02:47:32;89.37;;;40.83;;
5351;SDS011;2698;51.454;6.736;2022-11-30T02:50:06;92.80;;;45.73;;
5351;SDS011;2698;51.454;6.736;2022-11-30T02:52:36;83.00;;;42.87;;
5351;SDS011;2698;51.454;6.736;2022-11-30T02:55:03;74.00;;;41.50;;
5351;SDS011;2698;51.454;6.736;2022-11-30T02:57:33;74.10;;;41.73;;
5351;SDS011;2698;51.454;6.736;2022-11-30T03:00:01;84.13;;;44.10;;
5351;SDS011;2698;51.454;6.736;2022-11-30T03:02:32;89.83;;;40.33;;
5351;SDS011;2698;51.454;6.736;2022-11-30T03:04:59;72.73;;;38.73;;
5351;SDS011;2698;51.454;6.736;2022-11-30T03:07:26;70.90;;;38.20;;
5351;SDS011;2698;51.454;6.736;2022-11-30T03:09:53;78.50;;;40.30;;
5351;SDS011;2698;51.454;6.736;2022-11-30T03:12:20;71.93;;;39.97;;
5351;SDS011;2698;51.454;6.736;2022-11-30T03:14:47;61.17;;;36.70;;
5351;SDS011;2698;51.454;6.736;2022-11-30T03:17:13;66.93;;;37.30;;
5351;SDS011;2698;51.454;6.736;2022-11-30T03:19:42;64.40;;;35.93;;
5351;SDS011;2698;51.454;6.736;2022-11-30T03:22:08;56.27;;;34.70;;
5351;SDS011;2698;51.454;6.736;2022-11-30T03:24:35;63.03;;;37.50;;
5351;SDS011;2698;51.454;6.736;2022-11-30T03:27:02;65.80;;;38.43;;
5351;SDS011;2698;51.454;6.736;2022-11-30T03:29:29;67.03;;;37.23;;
5351;SDS011;2698;51.454;6.736;2022-11-30T03:31:56;63.80;;;35.20;;
5351;SDS011;2698;51.454;6.736;2022-11-30T03:34:22;53.13;;;33.00;;
5351;SDS011;2698;51.454;6.736;2022-11-30T03:36:52;51.40;;;31.90;;
5351;SDS011;2698;51.454;6.736;2022-11-30T03:39:19;58.37;;;32.43;;
5351;SDS011;2698;51.454;6.736;2022-11-30T03:41:47;51.57;;;31.53;;
5351;SDS011;2698;51.454;6.736;2022-11-30T03:44:14;51.57;;;32.47;;
5351;SDS011;2698;51.454;6.736;2022-11-30T03:46:41;43.90;;;28.07;;
5351;SDS011;2698;51.454;6.736;2022-11-30T03:49:07;52.93;;;31.33;;
5351;SDS011;2698;51.454;6.736;2022-11-30T03:51:34;46.87;;;28.13;;
5351;SDS011;2698;51.454;6.736;2022-11-30T03:54:02;46.73;;;30.47;;
5351;SDS011;2698;51.454;6.736;2022-11-30T03:56:29;49.33;;;27.83;;
5351;SDS011;2698;51.454;6.736;2022-11-30T03:58:56;47.63;;;30.97;;
5351;SDS011;2698;51.454;6.736;2022-11-30T04:01:23;45.87;;;29.47;;
5351;SDS011;2698;51.454;6.736;2022-11-30T04:03:50;49.20;;;30.90;;
5351;SDS011;2698;51.454;6.736;2022-11-30T04:06:17;55.77;;;32.10;;
5351;SDS011;2698;51.454;6.736;2022-11-30T04:08:45;45.10;;;27.23;;
5351;SDS011;2698;51.454;6.736;2022-11-30T04:11:13;48.83;;;30.60;;
5351;SDS011;2698;51.454;6.736;2022-11-30T04:13:41;45.57;;;29.50;;
5351;SDS011;2698;51.454;6.736;2022-11-30T04:16:08;42.70;;;27.67;;
5351;SDS011;2698;51.454;6.736;2022-11-30T04:18:35;46.60;;;27.00;;
5351;SDS011;2698;51.454;6.736;2022-11-30T04:21:03;41.93;;;26.87;;
5351;SDS011;2698;51.454;6.736;2022-11-30T04:23:32;43.03;;;27.67;;
5351;SDS011;2698;51.454;6.736;2022-11-30T04:26:01;42.60;;;28.57;;
5351;SDS011;2698;51.454;6.736;2022-11-30T04:28:29;43.60;;;28.20;;
5351;SDS011;2698;51.454;6.736;2022-11-30T04:30:57;46.00;;;29.20;;
5351;SDS011;2698;51.454;6.736;2022-11-30T04:33:25;46.47;;;28.20;;
5351;SDS011;2698;51.454;6.736;2022-11-30T04:35:53;46.57;;;28.90;;
5351;SDS011;2698;51.454;6.736;2022-11-30T04:38:21;50.30;;;31.30;;
5351;SDS011;2698;51.454;6.736;2022-11-30T04:40:49;41.83;;;27.37;;
5351;SDS011;2698;51.454;6.736;2022-11-30T04:43:16;45.47;;;28.47;;
5351;SDS011;2698;51.454;6.736;2022-11-30T04:45:45;44.23;;;26.50;;
5351;SDS011;2698;51.454;6.736;2022-11-30T04:48:12;45.67;;;28.17;;
5351;SDS011;2698;51.454;6.736;2022-11-30T04:50:39;46.70;;;28.30;;
5351;SDS011;2698;51.454;6.736;2022-11-30T04:53:06;46.73;;;24.03;;
5351;SDS011;2698;51.454;6.736;2022-11-30T04:55:34;45.77;;;24.10;;
5351;SDS011;2698;51.454;6.736;2022-11-30T04:58:01;40.23;;;26.67;;
5351;SDS011;2698;51.454;6.736;2022-11-30T05:00:28;50.40;;;27.60;;
5351;SDS011;2698;51.454;6.736;2022-11-30T05:02:56;46.23;;;29.27;;
5351;SDS011;2698;51.454;6.736;2022-11-30T05:05:23;43.73;;;27.93;;
5351;SDS011;2698;51.454;6.736;2022-11-30T05:07:50;60.50;;;29.77;;
5351;SDS011;2698;51.454;6.736;2022-11-30T05:10:21;42.27;;;25.83;;
5351;SDS011;2698;51.454;6.736;2022-11-30T05:12:47;40.83;;;23.97;;
5351;SDS011;2698;51.454;6.736;2022-11-30T05:15:15;35.93;;;23.43;;
5351;SDS011;2698;51.454;6.736;2022-11-30T05:17:42;40.10;;;24.10;;
5351;SDS011;2698;51.454;6.736;2022-11-30T05:20:10;37.70;;;23.90;;
5351;SDS011;2698;51.454;6.736;2022-11-30T05:22:37;38.60;;;23.70;;
5351;SDS011;2698;51.454;6.736;2022-11-30T05:25:04;43.00;;;24.73;;
5351;SDS011;2698;51.454;6.736;2022-11-30T05:27:32;40.30;;;24.97;;
5351;SDS011;2698;51.454;6.736;2022-11-30T05:29:59;35.90;;;24.30;;
5351;SDS011;2698;51.454;6.736;2022-11-30T05:32:26;41.70;;;24.00;;
5351;SDS011;2698;51.454;6.736;2022-11-30T05:34:52;38.97;;;24.40;;
5351;SDS011;2698;51.454;6.736;2022-11-30T05:37:20;38.23;;;24.97;;
5351;SDS011;2698;51.454;6.736;2022-11-30T05:39:47;44.23;;;25.30;;
5351;SDS011;2698;51.454;6.736;2022-11-30T05:42:14;44.27;;;25.00;;
5351;SDS011;2698;51.454;6.736;2022-11-30T05:44:41;40.07;;;25.07;;
5351;SDS011;2698;51.454;6.736;2022-11-30T05:47:08;46.27;;;26.30;;
5351;SDS011;2698;51.454;6.736;2022-11-30T05:49:35;49.63;;;28.30;;
5351;SDS011;2698;51.454;6.736;2022-11-30T05:52:02;47.57;;;28.40;;
5351;SDS011;2698;51.454;6.736;2022-11-30T05:54:30;52.17;;;29.53;;
5351;SDS011;2698;51.454;6.736;2022-11-30T05:56:58;42.87;;;27.30;;
5351;SDS011;2698;51.454;6.736;2022-11-30T05:59:25;43.83;;;27.07;;
5351;SDS011;2698;51.454;6.736;2022-11-30T06:01:52;44.73;;;27.73;;
5351;SDS011;2698;51.454;6.736;2022-11-30T06:04:19;46.50;;;28.10;;
5351;SDS011;2698;51.454;6.736;2022-11-30T06:06:46;49.97;;;29.73;;
5351;SDS011;2698;51.454;6.736;2022-11-30T06:09:15;50.23;;;31.93;;
5351;SDS011;2698;51.454;6.736;2022-11-30T06:11:43;51.03;;;29.97;;
5351;SDS011;2698;51.454;6.736;2022-11-30T06:14:09;51.20;;;31.00;;
5351;SDS011;2698;51.454;6.736;2022-11-30T06:16:36;50.93;;;33.73;;
5351;SDS011;2698;51.454;6.736;2022-11-30T06:19:04;51.80;;;30.53;;
5351;SDS011;2698;51.454;6.736;2022-11-30T06:21:30;56.73;;;31.10;;
5351;SDS011;2698;51.454;6.736;2022-11-30T06:23:57;55.90;;;34.80;;
5351;SDS011;2698;51.454;6.736;2022-11-30T06:26:24;59.60;;;31.90;;
5351;SDS011;2698;51.454;6.736;2022-11-30T06:28:52;59.13;;;32.07;;
5351;SDS011;2698;51.454;6.736;2022-11-30T06:31:19;58.80;;;33.27;;
5351;SDS011;2698;51.454;6.736;2022-11-30T06:33:45;53.97;;;30.83;;
5351;SDS011;2698;51.454;6.736;2022-11-30T06:36:12;57.50;;;33.13;;
5351;SDS011;2698;51.454;6.736;2022-11-30T06:38:39;57.93;;;32.33;;
5351;SDS011;2698;51.454;6.736;2022-11-30T06:41:06;55.57;;;31.97;;
5351;SDS011;2698;51.454;6.736;2022-11-30T06:43:34;52.70;;;31.00;;
5351;SDS011;2698;51.454;6.736;2022-11-30T06:46:03;54.53;;;29.23;;
5351;SDS011;2698;51.454;6.736;2022-11-30T06:48:31;52.60;;;30.87;;
5351;SDS011;2698;51.454;6.736;2022-11-30T06:50:59;51.77;;;30.20;;
5351;SDS011;2698;51.454;6.736;2022-11-30T06:53:26;63.33;;;29.73;;
5351;SDS011;2698;51.454;6.736;2022-11-30T06:55:53;56.17;;;31.50;;
5351;SDS011;2698;51.454;6.736;2022-11-30T06:58:20;54.67;;;31.20;;
5351;SDS011;2698;51.454;6.736;2022-11-30T07:00:47;51.40;;;29.90;;
5351;SDS011;2698;51.454;6.736;2022-11-30T07:03:15;55.83;;;31.90;;
5351;SDS011;2698;51.454;6.736;2022-11-30T07:05:42;50.67;;;31.50;;
5351;SDS011;2698;51.454;6.736;2022-11-30T07:08:11;53.93;;;30.73;;
5351;SDS011;2698;51.454;6.736;2022-11-30T07:10:39;63.33;;;29.77;;
5351;SDS011;2698;51.454;6.736;2022-11-30T07:13:08;63.23;;;35.67;;
5351;SDS011;2698;51.454;6.736;2022-11-30T07:15:36;68.13;;;35.50;;
5351;SDS011;2698;51.454;6.736;2022-11-30T07:18:03;57.23;;;35.50;;
5351;SDS011;2698;51.454;6.736;2022-11-30T07:20:31;53.00;;;34.60;;
5351;SDS011;2698;51.454;6.736;2022-11-30T07:22:58;65.00;;;35.77;;
5351;SDS011;2698;51.454;6.736;2022-11-30T07:25:45;56.47;;;31.87;;
5351;SDS011;2698;51.454;6.736;2022-11-30T07:28:30;55.77;;;31.40;;
5351;SDS011;2698;51.454;6.736;2022-11-30T07:30:57;56.40;;;33.47;;
5351;SDS011;2698;51.454;6.736;2022-11-30T07:33:24;55.60;;;33.07;;
5351;SDS011;2698;51.454;6.736;2022-11-30T07:35:52;65.17;;;35.13;;
5351;SDS011;2698;51.454;6.736;2022-11-30T07:38:19;65.10;;;34.13;;
5351;SDS011;2698;51.454;6.736;2022-11-30T07:40:46;51.33;;;32.70;;
5351;SDS011;2698;51.454;6.736;2022-11-30T07:43:13;56.20;;;35.03;;
5351;SDS011;2698;51.454;6.736;2022-11-30T07:45:41;61.27;;;33.47;;
5351;SDS011;2698;51.454;6.736;2022-11-30T07:48:08;60.03;;;32.60;;
5351;SDS011;2698;51.454;6.736;2022-11-30T07:50:35;52.07;;;33.03;;
5351;SDS011;2698;51.454;6.736;2022-11-30T07:53:03;55.67;;;30.90;;
5351;SDS011;2698;51.454;6.736;2022-11-30T07:55:30;61.63;;;34.53;;
5351;SDS011;2698;51.454;6.736;2022-11-30T07:57:57;56.27;;;32.83;;
5351;SDS011;2698;51.454;6.736;2022-11-30T08:00:23;55.10;;;33.17;;
5351;SDS011;2698;51.454;6.736;2022-11-30T08:02:50;57.43;;;32.90;;
5351;SDS011;2698;51.454;6.736;2022-11-30T08:05:17;60.40;;;33.80;;
5351;SDS011;2698;51.454;6.736;2022-11-30T08:07:44;54.10;;;32.93;;
5351;SDS011;2698;51.454;6.736;2022-11-30T08:10:16;53.13;;;32.53;;
5351;SDS011;2698;51.454;6.736;2022-11-30T08:12:43;62.27;;;33.77;;
5351;SDS011;2698;51.454;6.736;2022-11-30T08:15:10;56.67;;;34.33;;
5351;SDS011;2698;51.454;6.736;2022-11-30T08:17:37;58.07;;;35.07;;
5351;SDS011;2698;51.454;6.736;2022-11-30T08:20:04;52.63;;;33.33;;
5351;SDS011;2698;51.454;6.736;2022-11-30T08:22:32;58.93;;;33.73;;
5351;SDS011;2698;51.454;6.736;2022-11-30T08:24:59;50.87;;;33.93;;
5351;SDS011;2698;51.454;6.736;2022-11-30T08:27:27;51.90;;;33.27;;
5351;SDS011;2698;51.454;6.736;2022-11-30T08:29:54;58.97;;;33.90;;
5351;SDS011;2698;51.454;6.736;2022-11-30T08:32:20;55.90;;;33.40;;
5351;SDS011;2698;51.454;6.736;2022-11-30T08:34:47;58.87;;;34.03;;
5351;SDS011;2698;51.454;6.736;2022-11-30T08:37:14;76.67;;;35.57;;
5351;SDS011;2698;51.454;6.736;2022-11-30T08:39:41;60.07;;;35.93;;
5351;SDS011;2698;51.454;6.736;2022-11-30T08:42:07;54.97;;;36.70;;
5351;SDS011;2698;51.454;6.736;2022-11-30T08:44:36;63.13;;;35.57;;
5351;SDS011;2698;51.454;6.736;2022-11-30T08:47:02;58.90;;;36.77;;
5351;SDS011;2698;51.454;6.736;2022-11-30T08:49:30;67.57;;;40.43;;
5351;SDS011;2698;51.454;6.736;2022-11-30T08:51:56;69.67;;;40.87;;
5351;SDS011;2698;51.454;6.736;2022-11-30T08:54:23;75.93;;;40.47;;
5351;SDS011;2698;51.454;6.736;2022-11-30T08:56:51;72.90;;;39.27;;
5351;SDS011;2698;51.454;6.736;2022-11-30T08:59:18;73.90;;;39.53;;
5351;SDS011;2698;51.454;6.736;2022-11-30T09:01:46;73.40;;;41.37;;
5351;SDS011;2698;51.454;6.736;2022-11-30T09:04:13;75.63;;;42.17;;
5351;SDS011;2698;51.454;6.736;2022-11-30T09:06:39;68.27;;;41.30;;
5351;SDS011;2698;51.454;6.736;2022-11-30T09:09:06;90.30;;;42.63;;
5351;SDS011;2698;51.454;6.736;2022-11-30T09:11:33;71.23;;;39.57;;
5351;SDS011;2698;51.454;6.736;2022-11-30T09:14:01;72.50;;;40.67;;
5351;SDS011;2698;51.454;6.736;2022-11-30T09:16:29;72.07;;;42.27;;
5351;SDS011;2698;51.454;6.736;2022-11-30T09:18:57;69.80;;;38.80;;
5351;SDS011;2698;51.454;6.736;2022-11-30T09:21:24;59.90;;;34.67;;
5351;SDS011;2698;51.454;6.736;2022-11-30T09:23:51;63.73;;;35.00;;
5351;SDS011;2698;51.454;6.736;2022-11-30T09:26:20;64.73;;;36.10;;
5351;SDS011;2698;51.454;6.736;2022-11-30T09:28:49;60.47;;;35.37;;
5351;SDS011;2698;51.454;6.736;2022-11-30T09:31:18;65.17;;;37.13;;
5351;SDS011;2698;51.454;6.736;2022-11-30T09:33:46;54.97;;;33.40;;
5351;SDS011;2698;51.454;6.736;2022-11-30T09:36:15;65.03;;;34.23;;
5351;SDS011;2698;51.454;6.736;2022-11-30T09:38:44;60.80;;;34.10;;
5351;SDS011;2698;51.454;6.736;2022-11-30T09:41:21;57.93;;;34.73;;
5351;SDS011;2698;51.454;6.736;2022-11-30T09:44:04;57.20;;;33.70;;
5351;SDS011;2698;51.454;6.736;2022-11-30T09:46:38;53.03;;;31.50;;
5351;SDS011;2698;51.454;6.736;2022-11-30T09:49:10;56.40;;;34.27;;
5351;SDS011;2698;51.454;6.736;2022-11-30T09:51:44;71.23;;;33.90;;
5351;SDS011;2698;51.454;6.736;2022-11-30T09:54:12;55.40;;;34.00;;
5351;SDS011;2698;51.454;6.736;2022-11-30T09:56:42;65.60;;;34.70;;
5351;SDS011;2698;51.454;6.736;2022-11-30T09:59:12;56.13;;;34.07;;
5351;SDS011;2698;51.454;6.736;2022-11-30T10:01:44;62.33;;;33.17;;
5351;SDS011;2698;51.454;6.736;2022-11-30T10:06:48;57.30;;;34.17;;
5351;SDS011;2698;51.454;6.736;2022-11-30T10:09:25;61.70;;;34.90;;
5351;SDS011;2698;51.454;6.736;2022-11-30T10:12:01;59.27;;;34.80;;
5351;SDS011;2698;51.454;6.736;2022-11-30T10:14:40;62.17;;;31.93;;
5351;SDS011;2698;51.454;6.736;2022-11-30T10:17:25;55.70;;;33.37;;
5351;SDS011;2698;51.454;6.736;2022-11-30T10:20:09;65.73;;;32.87;;
5351;SDS011;2698;51.454;6.736;2022-11-30T10:22:52;61.90;;;34.40;;
5351;SDS011;2698;51.454;6.736;2022-11-30T10:25:32;58.80;;;32.63;;
5351;SDS011;2698;51.454;6.736;2022-11-30T10:28:06;68.07;;;35.33;;
5351;SDS011;2698;51.454;6.736;2022-11-30T10:30:41;63.17;;;35.80;;
5351;SDS011;2698;51.454;6.736;2022-11-30T10:33:11;58.40;;;34.27;;
5351;SDS011;2698;51.454;6.736;2022-11-30T10:35:43;67.27;;;35.50;;
5351;SDS011;2698;51.454;6.736;2022-11-30T10:38:15;63.27;;;34.30;;
5351;SDS011;2698;51.454;6.736;2022-11-30T10:40:47;65.47;;;37.07;;
5351;SDS011;2698;51.454;6.736;2022-11-30T10:43:20;65.20;;;32.80;;
5351;SDS011;2698;51.454;6.736;2022-11-30T10:45:51;62.27;;;32.00;;
5351;SDS011;2698;51.454;6.736;2022-11-30T10:48:19;59.33;;;33.57;;
5351;SDS011;2698;51.454;6.736;2022-11-30T10:50:51;60.70;;;34.20;;
5351;SDS011;2698;51.454;6.736;2022-11-30T10:53:19;64.13;;;35.03;;
5351;SDS011;2698;51.454;6.736;2022-11-30T10:55:48;56.60;;;32.97;;
5351;SDS011;2698;51.454;6.736;2022-11-30T10:58:23;68.17;;;35.13;;
5351;SDS011;2698;51.454;6.736;2022-11-30T11:00:57;54.47;;;32.03;;
5351;SDS011;2698;51.454;6.736;2022-11-30T11:03:28;50.17;;;30.50;;
5351;SDS011;2698;51.454;6.736;2022-11-30T11:06:02;57.53;;;31.57;;
5351;SDS011;2698;51.454;6.736;2022-11-30T11:08:41;66.97;;;35.23;;
5351;SDS011;2698;51.454;6.736;2022-11-30T11:11:24;60.70;;;33.23;;
5351;SDS011;2698;51.454;6.736;2022-11-30T11:14:08;68.73;;;35.07;;
5351;SDS011;2698;51.454;6.736;2022-11-30T11:16:49;60.07;;;30.53;;
5351;SDS011;2698;51.454;6.736;2022-11-30T11:19:22;53.93;;;30.33;;
5351;SDS011;2698;51.454;6.736;2022-11-30T11:22:00;54.13;;;29.97;;
5351;SDS011;2698;51.454;6.736;2022-11-30T11:24:31;49.37;;;28.60;;
5351;SDS011;2698;51.454;6.736;2022-11-30T11:26:59;44.50;;;28.40;;
5351;SDS011;2698;51.454;6.736;2022-11-30T11:29:27;58.30;;;30.67;;
5351;SDS011;2698;51.454;6.736;2022-11-30T11:32:16;44.97;;;28.13;;
5351;SDS011;2698;51.454;6.736;2022-11-30T11:34:46;52.97;;;29.43;;
5351;SDS011;2698;51.454;6.736;2022-11-30T11:37:15;57.07;;;31.63;;
5351;SDS011;2698;51.454;6.736;2022-11-30T11:39:55;60.70;;;31.10;;
5351;SDS011;2698;51.454;6.736;2022-11-30T11:42:23;50.93;;;30.97;;
5351;SDS011;2698;51.454;6.736;2022-11-30T11:44:52;60.13;;;32.00;;
5351;SDS011;2698;51.454;6.736;2022-11-30T11:47:22;60.43;;;32.40;;
5351;SDS011;2698;51.454;6.736;2022-11-30T11:49:51;76.93;;;31.93;;
5351;SDS011;2698;51.454;6.736;2022-11-30T11:52:46;60.67;;;33.60;;
5351;SDS011;2698;51.454;6.736;2022-11-30T11:55:16;67.30;;;30.90;;
5351;SDS011;2698;51.454;6.736;2022-11-30T11:57:46;60.20;;;30.50;;
5351;SDS011;2698;51.454;6.736;2022-11-30T12:00:19;56.53;;;32.60;;
5351;SDS011;2698;51.454;6.736;2022-11-30T12:02:50;55.47;;;31.17;;
5351;SDS011;2698;51.454;6.736;2022-11-30T12:05:23;57.27;;;31.40;;
5351;SDS011;2698;51.454;6.736;2022-11-30T12:08:05;61.53;;;31.87;;
5351;SDS011;2698;51.454;6.736;2022-11-30T12:10:40;60.07;;;30.23;;
5351;SDS011;2698;51.454;6.736;2022-11-30T12:13:11;63.20;;;32.10;;
5351;SDS011;2698;51.454;6.736;2022-11-30T12:15:43;59.23;;;30.00;;
5351;SDS011;2698;51.454;6.736;2022-11-30T12:18:19;52.03;;;28.17;;
5351;SDS011;2698;51.454;6.736;2022-11-30T12:20:52;48.67;;;28.57;;
5351;SDS011;2698;51.454;6.736;2022-11-30T12:23:34;47.00;;;28.73;;
5351;SDS011;2698;51.454;6.736;2022-11-30T12:26:13;50.83;;;27.83;;
5351;SDS011;2698;51.454;6.736;2022-11-30T12:28:52;51.40;;;27.47;;
5351;SDS011;2698;51.454;6.736;2022-11-30T12:31:39;54.07;;;28.30;;
5351;SDS011;2698;51.454;6.736;2022-11-30T12:34:17;52.87;;;29.30;;
5351;SDS011;2698;51.454;6.736;2022-11-30T12:36:50;52.47;;;28.30;;
5351;SDS011;2698;51.454;6.736;2022-11-30T12:39:24;54.77;;;28.73;;
5351;SDS011;2698;51.454;6.736;2022-11-30T12:42:00;56.93;;;27.83;;
5351;SDS011;2698;51.454;6.736;2022-11-30T12:44:37;56.43;;;30.57;;
5351;SDS011;2698;51.454;6.736;2022-11-30T12:47:16;45.70;;;28.00;;
5351;SDS011;2698;51.454;6.736;2022-11-30T12:49:56;56.47;;;30.40;;
5351;SDS011;2698;51.454;6.736;2022-11-30T12:52:43;53.63;;;29.07;;
5351;SDS011;2698;51.454;6.736;2022-11-30T12:55:20;51.43;;;28.17;;
5351;SDS011;2698;51.454;6.736;2022-11-30T12:57:56;46.97;;;26.93;;
5351;SDS011;2698;51.454;6.736;2022-11-30T13:00:30;44.10;;;26.30;;
5351;SDS011;2698;51.454;6.736;2022-11-30T13:03:13;43.10;;;25.93;;
5351;SDS011;2698;51.454;6.736;2022-11-30T13:05:58;53.20;;;28.90;;
5351;SDS011;2698;51.454;6.736;2022-11-30T13:08:27;53.67;;;29.40;;
5351;SDS011;2698;51.454;6.736;2022-11-30T13:11:00;48.73;;;29.93;;
5351;SDS011;2698;51.454;6.736;2022-11-30T13:13:34;46.07;;;25.50;;
5351;SDS011;2698;51.454;6.736;2022-11-30T13:16:02;45.30;;;26.87;;
5351;SDS011;2698;51.454;6.736;2022-11-30T13:18:33;48.77;;;28.03;;
5351;SDS011;2698;51.454;6.736;2022-11-30T13:21:02;41.63;;;25.63;;
5351;SDS011;2698;51.454;6.736;2022-11-30T13:23:34;47.30;;;28.20;;
5351;SDS011;2698;51.454;6.736;2022-11-30T13:26:07;43.80;;;27.60;;
5351;SDS011;2698;51.454;6.736;2022-11-30T13:28:52;47.40;;;26.13;;
5351;SDS011;2698;51.454;6.736;2022-11-30T13:31:32;49.00;;;27.13;;
5351;SDS011;2698;51.454;6.736;2022-11-30T13:34:03;44.90;;;27.23;;
5351;SDS011;2698;51.454;6.736;2022-11-30T13:36:47;41.37;;;25.03;;
5351;SDS011;2698;51.454;6.736;2022-11-30T13:39:22;43.03;;;26.57;;
5351;SDS011;2698;51.454;6.736;2022-11-30T13:41:51;46.67;;;25.60;;
5351;SDS011;2698;51.454;6.736;2022-11-30T13:44:52;47.73;;;27.40;;
5351;SDS011;2698;51.454;6.736;2022-11-30T13:47:25;41.83;;;25.20;;
5351;SDS011;2698;51.454;6.736;2022-11-30T13:49:54;47.60;;;26.30;;
5351;SDS011;2698;51.454;6.736;2022-11-30T13:58:18;51.07;;;26.27;;
5351;SDS011;2698;51.454;6.736;2022-11-30T14:00:47;40.57;;;24.70;;
5351;SDS011;2698;51.454;6.736;2022-11-30T14:03:40;44.57;;;25.10;;
5351;SDS011;2698;51.454;6.736;2022-11-30T14:09:11;50.53;;;28.53;;
5351;SDS011;2698;51.454;6.736;2022-11-30T14:11:41;54.13;;;26.73;;
5351;SDS011;2698;51.454;6.736;2022-11-30T14:17:11;48.50;;;25.47;;
5351;SDS011;2698;51.454;6.736;2022-11-30T14:19:42;50.40;;;27.60;;
5351;SDS011;2698;51.454;6.736;2022-11-30T14:22:10;42.93;;;25.23;;
5351;SDS011;2698;51.454;6.736;2022-11-30T14:24:39;40.83;;;24.40;;
5351;SDS011;2698;51.454;6.736;2022-11-30T14:27:08;36.23;;;22.13;;
5351;SDS011;2698;51.454;6.736;2022-11-30T14:29:41;42.63;;;26.33;;
5351;SDS011;2698;51.454;6.736;2022-11-30T14:32:10;44.83;;;25.00;;
5351;SDS011;2698;51.454;6.736;2022-11-30T14:34:42;38.00;;;23.73;;
5351;SDS011;2698;51.454;6.736;2022-11-30T14:37:14;36.90;;;25.03;;
5351;SDS011;2698;51.454;6.736;2022-11-30T14:39:44;40.83;;;23.97;;
5351;SDS011;2698;51.454;6.736;2022-11-30T14:42:17;41.13;;;24.80;;
5351;SDS011;2698;51.454;6.736;2022-11-30T14:44:46;39.87;;;24.70;;
5351;SDS011;2698;51.454;6.736;2022-11-30T14:47:19;41.73;;;25.40;;
5351;SDS011;2698;51.454;6.736;2022-11-30T14:49:48;43.60;;;26.33;;
5351;SDS011;2698;51.454;6.736;2022-11-30T14:52:20;43.17;;;25.27;;
5351;SDS011;2698;51.454;6.736;2022-11-30T14:55:04;36.50;;;25.17;;
5351;SDS011;2698;51.454;6.736;2022-11-30T14:57:40;48.20;;;27.10;;
5351;SDS011;2698;51.454;6.736;2022-11-30T15:00:13;43.10;;;26.10;;
5351;SDS011;2698;51.454;6.736;2022-11-30T15:02:43;43.83;;;26.17;;
5351;SDS011;2698;51.454;6.736;2022-11-30T15:05:11;44.37;;;23.63;;
5351;SDS011;2698;51.454;6.736;2022-11-30T15:07:42;35.43;;;24.23;;
5351;SDS011;2698;51.454;6.736;2022-11-30T15:10:11;35.40;;;23.40;;
5351;SDS011;2698;51.454;6.736;2022-11-30T15:12:41;43.70;;;21.77;;
5351;SDS011;2698;51.454;6.736;2022-11-30T15:15:14;36.70;;;23.23;;
5351;SDS011;2698;51.454;6.736;2022-11-30T15:17:48;36.57;;;22.80;;